sensor_id;sensor_type;location;lat;lon;timestamp;P1;durP1;ratioP1;P2;durP2;ratioP2
70414;SDS011;57837;52.064;113.478;2023-11-21T00:02:04;24.83;;;7.27;;
70414;SDS011;57837;52.064;113.478;2023-11-21T00:05:09;34.90;;;9.85;;
70414;SDS011;57837;52.064;113.478;2023-11-21T00:08:13;28.92;;;7.88;;
70414;SDS011;57837;52.064;113.478;2023-11-21T00:11:16;22.23;;;7.27;;
70414;SDS011;57837;52.064;113.478;2023-11-21T00:14:20;29.30;;;8.23;;
70414;SDS011;57837;52.064;113.478;2023-11-21T00:17:24;21.42;;;6.43;;
70414;SDS011;57837;52.064;113.478;2023-11-21T00:20:28;23.35;;;5.45;;
70414;SDS011;57837;52.064;113.478;2023-11-21T00:23:31;16.83;;;5.85;;
70414;SDS011;57837;52.064;113.478;2023-11-21T00:26:35;14.50;;;6.00;;
70414;SDS011;57837;52.064;113.478;2023-11-21T00:29:41;15.00;;;5.70;;
70414;SDS011;57837;52.064;113.478;2023-11-21T00:32:46;22.60;;;6.43;;
70414;SDS011;57837;52.064;113.478;2023-11-21T00:35:50;25.33;;;6.70;;
70414;SDS011;57837;52.064;113.478;2023-11-21T00:38:54;38.75;;;9.77;;
70414;SDS011;57837;52.064;113.478;2023-11-21T00:41:59;34.53;;;9.87;;
70414;SDS011;57837;52.064;113.478;2023-11-21T00:45:03;26.83;;;8.50;;
70414;SDS011;57837;52.064;113.478;2023-11-21T00:48:07;24.33;;;7.32;;
70414;SDS011;57837;52.064;113.478;2023-11-21T00:51:11;22.38;;;8.85;;
70414;SDS011;57837;52.064;113.478;2023-11-21T00:54:15;18.98;;;6.45;;
70414;SDS011;57837;52.064;113.478;2023-11-21T00:57:19;22.77;;;6.95;;
70414;SDS011;57837;52.064;113.478;2023-11-21T01:00:22;13.23;;;5.55;;
70414;SDS011;57837;52.064;113.478;2023-11-21T01:03:26;22.80;;;6.77;;
70414;SDS011;57837;52.064;113.478;2023-11-21T01:06:31;17.85;;;6.43;;
70414;SDS011;57837;52.064;113.478;2023-11-21T01:09:35;29.08;;;6.88;;
70414;SDS011;57837;52.064;113.478;2023-11-21T01:12:39;21.75;;;7.38;;
70414;SDS011;57837;52.064;113.478;2023-11-21T01:15:43;19.73;;;8.00;;
70414;SDS011;57837;52.064;113.478;2023-11-21T01:18:47;24.20;;;9.65;;
70414;SDS011;57837;52.064;113.478;2023-11-21T01:21:51;34.63;;;11.43;;
70414;SDS011;57837;52.064;113.478;2023-11-21T01:24:56;26.10;;;9.40;;
70414;SDS011;57837;52.064;113.478;2023-11-21T01:28:00;23.58;;;9.00;;
70414;SDS011;57837;52.064;113.478;2023-11-21T01:31:05;24.45;;;8.50;;
70414;SDS011;57837;52.064;113.478;2023-11-21T01:34:10;23.63;;;10.03;;
70414;SDS011;57837;52.064;113.478;2023-11-21T01:37:14;26.13;;;10.73;;
70414;SDS011;57837;52.064;113.478;2023-11-21T01:40:19;27.33;;;9.85;;
70414;SDS011;57837;52.064;113.478;2023-11-21T01:43:23;28.38;;;9.43;;
70414;SDS011;57837;52.064;113.478;2023-11-21T01:46:28;23.07;;;9.33;;
70414;SDS011;57837;52.064;113.478;2023-11-21T01:49:32;23.23;;;7.88;;
70414;SDS011;57837;52.064;113.478;2023-11-21T01:52:36;25.92;;;6.63;;
70414;SDS011;57837;52.064;113.478;2023-11-21T01:55:40;10.48;;;4.45;;
70414;SDS011;57837;52.064;113.478;2023-11-21T01:58:45;19.43;;;6.10;;
70414;SDS011;57837;52.064;113.478;2023-11-21T02:01:49;23.38;;;10.13;;
70414;SDS011;57837;52.064;113.478;2023-11-21T02:04:54;24.98;;;10.18;;
70414;SDS011;57837;52.064;113.478;2023-11-21T02:08:19;27.25;;;8.68;;
70414;SDS011;57837;52.064;113.478;2023-11-21T02:11:23;21.67;;;6.23;;
70414;SDS011;57837;52.064;113.478;2023-11-21T02:14:27;26.38;;;8.88;;
70414;SDS011;57837;52.064;113.478;2023-11-21T02:17:31;15.38;;;5.80;;
70414;SDS011;57837;52.064;113.478;2023-11-21T02:20:35;20.38;;;6.50;;
70414;SDS011;57837;52.064;113.478;2023-11-21T02:23:42;24.77;;;9.37;;
70414;SDS011;57837;52.064;113.478;2023-11-21T02:27:12;17.88;;;7.40;;
70414;SDS011;57837;52.064;113.478;2023-11-21T02:30:16;17.67;;;5.05;;
70414;SDS011;57837;52.064;113.478;2023-11-21T02:33:20;16.30;;;7.30;;
70414;SDS011;57837;52.064;113.478;2023-11-21T02:36:24;19.27;;;7.25;;
70414;SDS011;57837;52.064;113.478;2023-11-21T02:39:28;19.23;;;6.57;;
70414;SDS011;57837;52.064;113.478;2023-11-21T02:42:32;18.58;;;3.28;;
70414;SDS011;57837;52.064;113.478;2023-11-21T02:45:36;10.63;;;1.90;;
70414;SDS011;57837;52.064;113.478;2023-11-21T02:48:40;11.18;;;2.33;;
70414;SDS011;57837;52.064;113.478;2023-11-21T02:51:44;10.33;;;2.37;;
70414;SDS011;57837;52.064;113.478;2023-11-21T02:54:48;12.25;;;3.17;;
70414;SDS011;57837;52.064;113.478;2023-11-21T02:57:51;6.38;;;1.88;;
70414;SDS011;57837;52.064;113.478;2023-11-21T03:00:55;18.77;;;4.97;;
70414;SDS011;57837;52.064;113.478;2023-11-21T03:03:58;7.28;;;2.03;;
70414;SDS011;57837;52.064;113.478;2023-11-21T03:07:02;6.20;;;2.80;;
70414;SDS011;57837;52.064;113.478;2023-11-21T03:10:08;14.35;;;6.50;;
70414;SDS011;57837;52.064;113.478;2023-11-21T03:13:14;13.43;;;7.03;;
70414;SDS011;57837;52.064;113.478;2023-11-21T03:16:18;11.63;;;4.15;;
70414;SDS011;57837;52.064;113.478;2023-11-21T03:19:22;11.32;;;5.18;;
70414;SDS011;57837;52.064;113.478;2023-11-21T03:22:27;7.87;;;3.07;;
70414;SDS011;57837;52.064;113.478;2023-11-21T03:25:36;13.27;;;2.88;;
70414;SDS011;57837;52.064;113.478;2023-11-21T03:28:40;8.52;;;2.85;;
70414;SDS011;57837;52.064;113.478;2023-11-21T03:31:45;9.60;;;3.20;;
70414;SDS011;57837;52.064;113.478;2023-11-21T03:34:55;7.50;;;1.70;;
70414;SDS011;57837;52.064;113.478;2023-11-21T03:38:02;4.90;;;1.60;;
70414;SDS011;57837;52.064;113.478;2023-11-21T03:41:06;6.95;;;1.90;;
70414;SDS011;57837;52.064;113.478;2023-11-21T03:44:10;5.05;;;2.20;;
70414;SDS011;57837;52.064;113.478;2023-11-21T03:47:13;17.70;;;4.93;;
70414;SDS011;57837;52.064;113.478;2023-11-21T03:50:18;9.95;;;3.50;;
70414;SDS011;57837;52.064;113.478;2023-11-21T03:53:22;33.63;;;12.40;;
70414;SDS011;57837;52.064;113.478;2023-11-21T03:56:25;13.82;;;5.18;;
70414;SDS011;57837;52.064;113.478;2023-11-21T03:59:29;12.35;;;4.97;;
70414;SDS011;57837;52.064;113.478;2023-11-21T04:02:32;14.27;;;6.70;;
70414;SDS011;57837;52.064;113.478;2023-11-21T04:05:37;8.95;;;4.13;;
70414;SDS011;57837;52.064;113.478;2023-11-21T04:08:40;6.83;;;3.57;;
70414;SDS011;57837;52.064;113.478;2023-11-21T04:11:45;14.50;;;6.22;;
70414;SDS011;57837;52.064;113.478;2023-11-21T04:14:48;7.75;;;3.40;;
70414;SDS011;57837;52.064;113.478;2023-11-21T04:17:55;9.77;;;3.75;;
70414;SDS011;57837;52.064;113.478;2023-11-21T04:20:59;13.23;;;4.68;;
70414;SDS011;57837;52.064;113.478;2023-11-21T04:24:03;9.27;;;3.60;;
70414;SDS011;57837;52.064;113.478;2023-11-21T04:27:07;5.72;;;2.28;;
70414;SDS011;57837;52.064;113.478;2023-11-21T04:30:11;5.78;;;1.75;;
70414;SDS011;57837;52.064;113.478;2023-11-21T04:33:15;4.43;;;1.67;;
70414;SDS011;57837;52.064;113.478;2023-11-21T04:36:19;3.08;;;1.42;;
70414;SDS011;57837;52.064;113.478;2023-11-21T04:39:23;4.00;;;1.93;;
70414;SDS011;57837;52.064;113.478;2023-11-21T04:42:27;13.32;;;2.70;;
70414;SDS011;57837;52.064;113.478;2023-11-21T04:45:32;4.35;;;1.10;;
70414;SDS011;57837;52.064;113.478;2023-11-21T04:48:36;4.30;;;1.30;;
70414;SDS011;57837;52.064;113.478;2023-11-21T04:51:40;4.90;;;1.52;;
70414;SDS011;57837;52.064;113.478;2023-11-21T04:54:44;6.10;;;1.70;;
70414;SDS011;57837;52.064;113.478;2023-11-21T04:57:48;11.13;;;3.33;;
70414;SDS011;57837;52.064;113.478;2023-11-21T05:00:52;22.38;;;4.47;;
70414;SDS011;57837;52.064;113.478;2023-11-21T05:03:55;7.70;;;2.67;;
70414;SDS011;57837;52.064;113.478;2023-11-21T05:07:00;17.77;;;5.20;;
70414;SDS011;57837;52.064;113.478;2023-11-21T05:10:07;16.10;;;5.30;;
70414;SDS011;57837;52.064;113.478;2023-11-21T05:13:15;13.82;;;3.53;;
70414;SDS011;57837;52.064;113.478;2023-11-21T05:16:20;7.47;;;2.42;;
70414;SDS011;57837;52.064;113.478;2023-11-21T05:19:25;6.65;;;2.30;;
70414;SDS011;57837;52.064;113.478;2023-11-21T05:22:30;10.05;;;3.90;;
70414;SDS011;57837;52.064;113.478;2023-11-21T05:25:34;10.07;;;4.40;;
70414;SDS011;57837;52.064;113.478;2023-11-21T05:28:42;7.25;;;2.70;;
70414;SDS011;57837;52.064;113.478;2023-11-21T05:31:46;5.03;;;1.90;;
70414;SDS011;57837;52.064;113.478;2023-11-21T05:34:49;5.10;;;2.20;;
70414;SDS011;57837;52.064;113.478;2023-11-21T05:37:53;6.90;;;2.22;;
70414;SDS011;57837;52.064;113.478;2023-11-21T05:40:57;10.53;;;3.07;;
70414;SDS011;57837;52.064;113.478;2023-11-21T05:44:01;10.15;;;3.90;;
70414;SDS011;57837;52.064;113.478;2023-11-21T05:47:05;10.35;;;4.03;;
70414;SDS011;57837;52.064;113.478;2023-11-21T05:50:10;16.55;;;4.63;;
70414;SDS011;57837;52.064;113.478;2023-11-21T05:53:17;8.57;;;2.58;;
70414;SDS011;57837;52.064;113.478;2023-11-21T05:56:21;14.93;;;3.37;;
70414;SDS011;57837;52.064;113.478;2023-11-21T05:59:25;14.35;;;4.53;;
70414;SDS011;57837;52.064;113.478;2023-11-21T06:02:28;16.00;;;6.47;;
70414;SDS011;57837;52.064;113.478;2023-11-21T06:05:33;13.30;;;3.88;;
70414;SDS011;57837;52.064;113.478;2023-11-21T06:08:37;10.20;;;3.13;;
70414;SDS011;57837;52.064;113.478;2023-11-21T06:11:40;6.93;;;2.83;;
70414;SDS011;57837;52.064;113.478;2023-11-21T06:14:44;13.52;;;4.03;;
70414;SDS011;57837;52.064;113.478;2023-11-21T06:17:48;18.05;;;5.70;;
70414;SDS011;57837;52.064;113.478;2023-11-21T06:20:56;9.50;;;3.55;;
70414;SDS011;57837;52.064;113.478;2023-11-21T06:24:00;9.95;;;4.00;;
70414;SDS011;57837;52.064;113.478;2023-11-21T06:27:04;15.97;;;3.97;;
70414;SDS011;57837;52.064;113.478;2023-11-21T06:30:08;22.58;;;7.18;;
70414;SDS011;57837;52.064;113.478;2023-11-21T06:33:12;20.40;;;4.47;;
70414;SDS011;57837;52.064;113.478;2023-11-21T06:36:15;10.02;;;3.03;;
70414;SDS011;57837;52.064;113.478;2023-11-21T06:39:19;3.92;;;1.52;;
70414;SDS011;57837;52.064;113.478;2023-11-21T06:42:26;5.87;;;2.10;;
70414;SDS011;57837;52.064;113.478;2023-11-21T06:45:32;8.25;;;2.22;;
70414;SDS011;57837;52.064;113.478;2023-11-21T06:48:37;7.60;;;3.47;;
70414;SDS011;57837;52.064;113.478;2023-11-21T06:51:41;12.70;;;4.43;;
70414;SDS011;57837;52.064;113.478;2023-11-21T06:54:47;14.15;;;3.65;;
70414;SDS011;57837;52.064;113.478;2023-11-21T06:57:54;11.80;;;3.40;;
70414;SDS011;57837;52.064;113.478;2023-11-21T07:00:58;11.85;;;3.50;;
70414;SDS011;57837;52.064;113.478;2023-11-21T07:04:01;10.30;;;3.03;;
70414;SDS011;57837;52.064;113.478;2023-11-21T07:07:06;8.85;;;3.08;;
70414;SDS011;57837;52.064;113.478;2023-11-21T07:10:10;16.42;;;3.40;;
70414;SDS011;57837;52.064;113.478;2023-11-21T07:13:14;9.40;;;3.43;;
70414;SDS011;57837;52.064;113.478;2023-11-21T07:16:17;11.45;;;4.03;;
70414;SDS011;57837;52.064;113.478;2023-11-21T07:19:21;14.63;;;4.80;;
70414;SDS011;57837;52.064;113.478;2023-11-21T07:22:25;12.07;;;2.88;;
70414;SDS011;57837;52.064;113.478;2023-11-21T07:25:29;11.18;;;3.15;;
70414;SDS011;57837;52.064;113.478;2023-11-21T07:28:33;7.50;;;2.80;;
70414;SDS011;57837;52.064;113.478;2023-11-21T07:31:37;9.48;;;2.80;;
70414;SDS011;57837;52.064;113.478;2023-11-21T07:34:41;14.98;;;4.40;;
70414;SDS011;57837;52.064;113.478;2023-11-21T07:37:45;14.57;;;4.70;;
70414;SDS011;57837;52.064;113.478;2023-11-21T07:40:49;16.08;;;5.97;;
70414;SDS011;57837;52.064;113.478;2023-11-21T07:43:54;16.53;;;5.23;;
70414;SDS011;57837;52.064;113.478;2023-11-21T07:46:59;8.25;;;3.13;;
70414;SDS011;57837;52.064;113.478;2023-11-21T07:50:03;7.75;;;2.90;;
70414;SDS011;57837;52.064;113.478;2023-11-21T07:53:07;6.70;;;2.30;;
70414;SDS011;57837;52.064;113.478;2023-11-21T07:56:12;7.40;;;2.38;;
70414;SDS011;57837;52.064;113.478;2023-11-21T07:59:15;17.30;;;4.33;;
70414;SDS011;57837;52.064;113.478;2023-11-21T08:02:21;18.02;;;4.63;;
70414;SDS011;57837;52.064;113.478;2023-11-21T08:05:26;15.77;;;5.53;;
70414;SDS011;57837;52.064;113.478;2023-11-21T08:08:38;19.40;;;5.88;;
70414;SDS011;57837;52.064;113.478;2023-11-21T08:11:42;37.43;;;11.10;;
70414;SDS011;57837;52.064;113.478;2023-11-21T08:14:45;115.72;;;35.38;;
70414;SDS011;57837;52.064;113.478;2023-11-21T08:17:49;299.15;;;99.65;;
70414;SDS011;57837;52.064;113.478;2023-11-21T08:20:57;238.13;;;79.47;;
70414;SDS011;57837;52.064;113.478;2023-11-21T08:24:01;87.80;;;31.03;;
70414;SDS011;57837;52.064;113.478;2023-11-21T08:27:06;82.28;;;28.45;;
70414;SDS011;57837;52.064;113.478;2023-11-21T08:30:10;75.60;;;26.23;;
70414;SDS011;57837;52.064;113.478;2023-11-21T08:33:17;80.50;;;27.02;;
70414;SDS011;57837;52.064;113.478;2023-11-21T08:36:20;76.20;;;26.67;;
70414;SDS011;57837;52.064;113.478;2023-11-21T08:39:24;90.15;;;31.77;;
70414;SDS011;57837;52.064;113.478;2023-11-21T08:42:27;95.93;;;36.30;;
70414;SDS011;57837;52.064;113.478;2023-11-21T08:45:32;89.22;;;30.75;;
70414;SDS011;57837;52.064;113.478;2023-11-21T08:48:40;74.70;;;26.60;;
70414;SDS011;57837;52.064;113.478;2023-11-21T08:51:44;114.85;;;36.85;;
70414;SDS011;57837;52.064;113.478;2023-11-21T08:54:49;123.97;;;46.30;;
70414;SDS011;57837;52.064;113.478;2023-11-21T08:57:59;144.40;;;60.75;;
70414;SDS011;57837;52.064;113.478;2023-11-21T09:01:04;69.55;;;30.63;;
70414;SDS011;57837;52.064;113.478;2023-11-21T09:04:09;79.05;;;32.38;;
70414;SDS011;57837;52.064;113.478;2023-11-21T09:07:13;65.50;;;25.98;;
70414;SDS011;57837;52.064;113.478;2023-11-21T09:10:16;77.07;;;31.87;;
70414;SDS011;57837;52.064;113.478;2023-11-21T09:13:19;75.68;;;31.40;;
70414;SDS011;57837;52.064;113.478;2023-11-21T09:16:25;67.40;;;27.83;;
70414;SDS011;57837;52.064;113.478;2023-11-21T09:19:29;95.43;;;37.40;;
70414;SDS011;57837;52.064;113.478;2023-11-21T09:22:33;269.40;;;96.83;;
70414;SDS011;57837;52.064;113.478;2023-11-21T09:25:37;183.80;;;60.87;;
70414;SDS011;57837;52.064;113.478;2023-11-21T09:28:40;107.15;;;41.10;;
70414;SDS011;57837;52.064;113.478;2023-11-21T09:31:47;167.40;;;53.90;;
70414;SDS011;57837;52.064;113.478;2023-11-21T09:34:53;172.00;;;60.07;;
70414;SDS011;57837;52.064;113.478;2023-11-21T09:38:01;139.73;;;46.53;;
70414;SDS011;57837;52.064;113.478;2023-11-21T09:41:15;147.15;;;47.38;;
70414;SDS011;57837;52.064;113.478;2023-11-21T09:44:32;133.25;;;44.08;;
70414;SDS011;57837;52.064;113.478;2023-11-21T09:47:40;158.13;;;54.90;;
70414;SDS011;57837;52.064;113.478;2023-11-21T09:50:43;143.38;;;52.28;;
70414;SDS011;57837;52.064;113.478;2023-11-21T09:53:53;167.27;;;55.83;;
70414;SDS011;57837;52.064;113.478;2023-11-21T09:56:59;183.90;;;62.97;;
70414;SDS011;57837;52.064;113.478;2023-11-21T10:00:06;143.60;;;51.17;;
70414;SDS011;57837;52.064;113.478;2023-11-21T10:03:15;131.32;;;46.05;;
70414;SDS011;57837;52.064;113.478;2023-11-21T10:06:21;129.32;;;44.95;;
70414;SDS011;57837;52.064;113.478;2023-11-21T10:09:28;153.95;;;54.60;;
70414;SDS011;57837;52.064;113.478;2023-11-21T10:12:33;150.90;;;55.90;;
70414;SDS011;57837;52.064;113.478;2023-11-21T10:15:38;146.25;;;52.08;;
70414;SDS011;57837;52.064;113.478;2023-11-21T10:18:48;139.27;;;49.80;;
70414;SDS011;57837;52.064;113.478;2023-11-21T10:22:00;136.20;;;51.75;;
70414;SDS011;57837;52.064;113.478;2023-11-21T10:25:07;144.93;;;53.23;;
70414;SDS011;57837;52.064;113.478;2023-11-21T10:28:13;133.05;;;48.08;;
70414;SDS011;57837;52.064;113.478;2023-11-21T10:31:17;136.30;;;43.95;;
70414;SDS011;57837;52.064;113.478;2023-11-21T10:34:21;79.38;;;30.58;;
70414;SDS011;57837;52.064;113.478;2023-11-21T10:37:25;69.70;;;27.73;;
70414;SDS011;57837;52.064;113.478;2023-11-21T10:40:30;74.85;;;26.77;;
70414;SDS011;57837;52.064;113.478;2023-11-21T10:43:34;60.85;;;23.48;;
70414;SDS011;57837;52.064;113.478;2023-11-21T10:46:38;62.58;;;23.50;;
70414;SDS011;57837;52.064;113.478;2023-11-21T10:49:43;59.80;;;21.37;;
70414;SDS011;57837;52.064;113.478;2023-11-21T10:52:46;56.13;;;20.27;;
70414;SDS011;57837;52.064;113.478;2023-11-21T10:55:50;71.57;;;22.63;;
70414;SDS011;57837;52.064;113.478;2023-11-21T10:59:08;88.07;;;28.57;;
70414;SDS011;57837;52.064;113.478;2023-11-21T11:02:23;72.22;;;25.70;;
70414;SDS011;57837;52.064;113.478;2023-11-21T11:05:31;65.70;;;22.60;;
70414;SDS011;57837;52.064;113.478;2023-11-21T11:08:38;67.90;;;21.85;;
70414;SDS011;57837;52.064;113.478;2023-11-21T11:11:43;55.25;;;19.55;;
70414;SDS011;57837;52.064;113.478;2023-11-21T11:14:50;60.53;;;20.50;;
70414;SDS011;57837;52.064;113.478;2023-11-21T11:17:55;59.67;;;22.25;;
70414;SDS011;57837;52.064;113.478;2023-11-21T11:21:11;65.53;;;23.67;;
70414;SDS011;57837;52.064;113.478;2023-11-21T11:24:44;82.90;;;25.88;;
70414;SDS011;57837;52.064;113.478;2023-11-21T11:27:56;74.93;;;25.25;;
70414;SDS011;57837;52.064;113.478;2023-11-21T11:31:14;73.10;;;25.33;;
70414;SDS011;57837;52.064;113.478;2023-11-21T11:34:47;89.72;;;29.63;;
70414;SDS011;57837;52.064;113.478;2023-11-21T11:37:58;107.65;;;32.58;;
70414;SDS011;57837;52.064;113.478;2023-11-21T11:41:03;179.43;;;63.90;;
70414;SDS011;57837;52.064;113.478;2023-11-21T11:44:46;135.50;;;56.85;;
70414;SDS011;57837;52.064;113.478;2023-11-21T11:48:01;123.43;;;47.22;;
70414;SDS011;57837;52.064;113.478;2023-11-21T11:51:10;125.28;;;49.60;;
70414;SDS011;57837;52.064;113.478;2023-11-21T11:54:34;137.00;;;50.07;;
70414;SDS011;57837;52.064;113.478;2023-11-21T11:57:39;130.82;;;41.03;;
70414;SDS011;57837;52.064;113.478;2023-11-21T12:00:45;106.30;;;38.38;;
70414;SDS011;57837;52.064;113.478;2023-11-21T12:07:47;124.32;;;46.58;;
70414;SDS011;57837;52.064;113.478;2023-11-21T12:10:52;101.22;;;40.13;;
70414;SDS011;57837;52.064;113.478;2023-11-21T12:13:58;133.90;;;44.60;;
70414;SDS011;57837;52.064;113.478;2023-11-21T12:17:04;121.05;;;44.80;;
70414;SDS011;57837;52.064;113.478;2023-11-21T12:20:08;106.78;;;39.90;;
70414;SDS011;57837;52.064;113.478;2023-11-21T12:23:22;144.10;;;51.38;;
70414;SDS011;57837;52.064;113.478;2023-11-21T12:26:27;221.30;;;82.37;;
70414;SDS011;57837;52.064;113.478;2023-11-21T12:29:31;132.93;;;50.50;;
70414;SDS011;57837;52.064;113.478;2023-11-21T12:32:36;113.75;;;41.38;;
70414;SDS011;57837;52.064;113.478;2023-11-21T12:35:40;92.90;;;37.37;;
70414;SDS011;57837;52.064;113.478;2023-11-21T12:38:47;80.60;;;32.40;;
70414;SDS011;57837;52.064;113.478;2023-11-21T12:41:50;99.45;;;35.83;;
70414;SDS011;57837;52.064;113.478;2023-11-21T12:45:08;109.80;;;42.38;;
70414;SDS011;57837;52.064;113.478;2023-11-21T12:48:18;145.75;;;54.35;;
70414;SDS011;57837;52.064;113.478;2023-11-21T12:51:28;134.13;;;49.97;;
70414;SDS011;57837;52.064;113.478;2023-11-21T12:54:33;188.45;;;70.32;;
70414;SDS011;57837;52.064;113.478;2023-11-21T12:57:40;146.03;;;54.43;;
70414;SDS011;57837;52.064;113.478;2023-11-21T13:00:49;170.52;;;62.17;;
70414;SDS011;57837;52.064;113.478;2023-11-21T13:03:55;160.48;;;62.95;;
70414;SDS011;57837;52.064;113.478;2023-11-21T13:07:05;201.20;;;84.37;;
70414;SDS011;57837;52.064;113.478;2023-11-21T13:10:17;168.73;;;64.50;;
70414;SDS011;57837;52.064;113.478;2023-11-21T13:13:21;117.50;;;46.08;;
70414;SDS011;57837;52.064;113.478;2023-11-21T13:16:26;204.93;;;75.18;;
70414;SDS011;57837;52.064;113.478;2023-11-21T13:19:30;131.10;;;51.95;;
70414;SDS011;57837;52.064;113.478;2023-11-21T13:22:34;131.05;;;49.70;;
70414;SDS011;57837;52.064;113.478;2023-11-21T13:25:39;116.70;;;45.58;;
70414;SDS011;57837;52.064;113.478;2023-11-21T13:28:44;169.07;;;57.23;;
70414;SDS011;57837;52.064;113.478;2023-11-21T13:31:50;149.13;;;55.58;;
70414;SDS011;57837;52.064;113.478;2023-11-21T13:34:56;161.07;;;51.88;;
70414;SDS011;57837;52.064;113.478;2023-11-21T13:38:18;137.30;;;45.13;;
70414;SDS011;57837;52.064;113.478;2023-11-21T13:41:26;128.10;;;46.88;;
70414;SDS011;57837;52.064;113.478;2023-11-21T13:44:36;230.93;;;80.50;;
70414;SDS011;57837;52.064;113.478;2023-11-21T13:47:44;255.82;;;94.13;;
70414;SDS011;57837;52.064;113.478;2023-11-21T13:50:48;235.30;;;86.20;;
70414;SDS011;57837;52.064;113.478;2023-11-21T13:54:01;251.68;;;89.60;;
70414;SDS011;57837;52.064;113.478;2023-11-21T13:57:05;244.60;;;91.90;;
70414;SDS011;57837;52.064;113.478;2023-11-21T14:00:09;218.90;;;77.17;;
70414;SDS011;57837;52.064;113.478;2023-11-21T14:03:34;324.67;;;124.22;;
70414;SDS011;57837;52.064;113.478;2023-11-21T14:06:49;296.20;;;100.32;;
70414;SDS011;57837;52.064;113.478;2023-11-21T14:09:57;254.00;;;88.70;;
70414;SDS011;57837;52.064;113.478;2023-11-21T14:13:00;243.30;;;87.20;;
70414;SDS011;57837;52.064;113.478;2023-11-21T14:16:04;237.30;;;85.43;;
70414;SDS011;57837;52.064;113.478;2023-11-21T14:19:10;232.02;;;84.07;;
70414;SDS011;57837;52.064;113.478;2023-11-21T14:22:23;176.93;;;67.78;;
70414;SDS011;57837;52.064;113.478;2023-11-21T14:25:29;237.27;;;88.68;;
70414;SDS011;57837;52.064;113.478;2023-11-21T14:28:33;216.80;;;75.47;;
70414;SDS011;57837;52.064;113.478;2023-11-21T14:31:39;290.60;;;102.60;;
70414;SDS011;57837;52.064;113.478;2023-11-21T14:34:43;247.05;;;93.50;;
70414;SDS011;57837;52.064;113.478;2023-11-21T14:37:50;292.58;;;104.03;;
70414;SDS011;57837;52.064;113.478;2023-11-21T14:40:54;319.40;;;120.83;;
70414;SDS011;57837;52.064;113.478;2023-11-21T14:44:04;291.55;;;109.30;;
70414;SDS011;57837;52.064;113.478;2023-11-21T14:47:11;173.70;;;62.47;;
70414;SDS011;57837;52.064;113.478;2023-11-21T14:50:28;230.60;;;86.72;;
70414;SDS011;57837;52.064;113.478;2023-11-21T14:53:41;205.75;;;76.50;;
70414;SDS011;57837;52.064;113.478;2023-11-21T14:57:07;239.75;;;90.50;;
70414;SDS011;57837;52.064;113.478;2023-11-21T15:00:18;162.25;;;66.43;;
70414;SDS011;57837;52.064;113.478;2023-11-21T15:03:39;205.07;;;79.97;;
70414;SDS011;57837;52.064;113.478;2023-11-21T15:06:47;233.23;;;93.68;;
70414;SDS011;57837;52.064;113.478;2023-11-21T15:09:51;257.45;;;92.22;;
70414;SDS011;57837;52.064;113.478;2023-11-21T15:12:56;183.30;;;75.80;;
70414;SDS011;57837;52.064;113.478;2023-11-21T15:16:00;226.80;;;84.13;;
70414;SDS011;57837;52.064;113.478;2023-11-21T15:19:11;277.00;;;101.57;;
70414;SDS011;57837;52.064;113.478;2023-11-21T15:22:21;240.55;;;89.90;;
70414;SDS011;57837;52.064;113.478;2023-11-21T15:25:25;294.70;;;104.97;;
70414;SDS011;57837;52.064;113.478;2023-11-21T15:28:28;284.02;;;101.80;;
70414;SDS011;57837;52.064;113.478;2023-11-21T15:31:32;229.43;;;86.88;;
70414;SDS011;57837;52.064;113.478;2023-11-21T15:34:36;228.27;;;87.23;;
70414;SDS011;57837;52.064;113.478;2023-11-21T15:37:41;252.00;;;94.00;;
70414;SDS011;57837;52.064;113.478;2023-11-21T15:40:49;240.88;;;94.05;;
70414;SDS011;57837;52.064;113.478;2023-11-21T15:43:53;261.70;;;99.57;;
70414;SDS011;57837;52.064;113.478;2023-11-21T15:46:58;267.60;;;98.55;;
70414;SDS011;57837;52.064;113.478;2023-11-21T15:50:03;198.88;;;81.35;;
70414;SDS011;57837;52.064;113.478;2023-11-21T15:53:11;295.60;;;111.35;;
70414;SDS011;57837;52.064;113.478;2023-11-21T15:56:17;258.98;;;95.95;;
70414;SDS011;57837;52.064;113.478;2023-11-21T15:59:21;233.80;;;85.88;;
70414;SDS011;57837;52.064;113.478;2023-11-21T16:02:27;185.75;;;79.90;;
70414;SDS011;57837;52.064;113.478;2023-11-21T16:05:35;278.97;;;94.67;;
70414;SDS011;57837;52.064;113.478;2023-11-21T16:08:38;242.27;;;90.57;;
70414;SDS011;57837;52.064;113.478;2023-11-21T16:11:44;247.10;;;97.70;;
70414;SDS011;57837;52.064;113.478;2023-11-21T16:14:48;218.33;;;86.90;;
70414;SDS011;57837;52.064;113.478;2023-11-21T16:17:52;199.05;;;75.18;;
70414;SDS011;57837;52.064;113.478;2023-11-21T16:20:55;228.75;;;84.97;;
70414;SDS011;57837;52.064;113.478;2023-11-21T16:24:00;178.38;;;62.33;;
70414;SDS011;57837;52.064;113.478;2023-11-21T16:27:03;217.10;;;78.90;;
70414;SDS011;57837;52.064;113.478;2023-11-21T16:30:07;168.00;;;57.88;;
70414;SDS011;57837;52.064;113.478;2023-11-21T16:33:12;124.18;;;46.42;;
70414;SDS011;57837;52.064;113.478;2023-11-21T16:36:17;136.67;;;47.53;;
70414;SDS011;57837;52.064;113.478;2023-11-21T16:39:21;152.18;;;54.47;;
70414;SDS011;57837;52.064;113.478;2023-11-21T16:42:25;79.72;;;32.38;;
70414;SDS011;57837;52.064;113.478;2023-11-21T16:45:31;61.53;;;22.37;;
70414;SDS011;57837;52.064;113.478;2023-11-21T16:48:35;114.88;;;41.90;;
70414;SDS011;57837;52.064;113.478;2023-11-21T16:51:40;72.25;;;34.35;;
70414;SDS011;57837;52.064;113.478;2023-11-21T16:54:47;101.47;;;38.03;;
70414;SDS011;57837;52.064;113.478;2023-11-21T16:57:52;32.70;;;15.00;;
70414;SDS011;57837;52.064;113.478;2023-11-21T17:00:55;56.22;;;22.17;;
70414;SDS011;57837;52.064;113.478;2023-11-21T17:04:00;78.90;;;29.85;;
70414;SDS011;57837;52.064;113.478;2023-11-21T17:07:06;56.77;;;22.13;;
70414;SDS011;57837;52.064;113.478;2023-11-21T17:10:12;24.95;;;12.27;;
70414;SDS011;57837;52.064;113.478;2023-11-21T17:13:16;32.30;;;12.05;;
70414;SDS011;57837;52.064;113.478;2023-11-21T17:16:20;59.40;;;20.83;;
70414;SDS011;57837;52.064;113.478;2023-11-21T17:19:25;33.25;;;14.35;;
70414;SDS011;57837;52.064;113.478;2023-11-21T17:22:33;39.78;;;6.90;;
70414;SDS011;57837;52.064;113.478;2023-11-21T17:25:38;31.58;;;13.90;;
70414;SDS011;57837;52.064;113.478;2023-11-21T17:28:42;59.35;;;20.40;;
70414;SDS011;57837;52.064;113.478;2023-11-21T17:31:46;49.20;;;16.23;;
70414;SDS011;57837;52.064;113.478;2023-11-21T17:34:50;69.47;;;24.85;;
70414;SDS011;57837;52.064;113.478;2023-11-21T17:37:54;35.50;;;15.63;;
70414;SDS011;57837;52.064;113.478;2023-11-21T17:40:57;46.08;;;13.00;;
70414;SDS011;57837;52.064;113.478;2023-11-21T17:44:02;58.90;;;18.58;;